sensor_id;sensor_type;location;lat;lon;timestamp;pressure;altitude;pressure_sealevel;temperature;humidity
21902;BME280;11115;46.038;14.612;2023-07-13T00:01:28;98176.66;;;21.35;100.00
21902;BME280;11115;46.038;14.612;2023-07-13T00:04:13;98175.78;;;21.24;100.00
21902;BME280;11115;46.038;14.612;2023-07-13T00:06:44;98174.03;;;21.16;100.00
21902;BME280;11115;46.038;14.612;2023-07-13T00:09:28;98163.16;;;21.11;100.00
21902;BME280;11115;46.038;14.612;2023-07-13T00:12:05;98166.41;;;21.16;100.00
21902;BME280;11115;46.038;14.612;2023-07-13T00:14:52;98172.00;;;21.13;100.00
21902;BME280;11115;46.038;14.612;2023-07-13T00:17:24;98172.13;;;21.24;100.00
21902;BME280;11115;46.038;14.612;2023-07-13T00:19:57;98163.41;;;21.36;100.00
21902;BME280;11115;46.038;14.612;2023-07-13T00:22:35;98142.31;;;21.19;100.00
21902;BME280;11115;46.038;14.612;2023-07-13T00:25:14;98130.03;;;21.34;100.00
21902;BME280;11115;46.038;14.612;2023-07-13T00:27:50;98131.66;;;21.39;100.00
21902;BME280;11115;46.038;14.612;2023-07-13T00:30:30;98119.56;;;21.31;100.00
21902;BME280;11115;46.038;14.612;2023-07-13T00:33:03;98119.00;;;21.18;100.00
21902;BME280;11115;46.038;14.612;2023-07-13T00:35:50;98110.56;;;21.18;100.00
21902;BME280;11115;46.038;14.612;2023-07-13T00:38:33;98099.44;;;21.29;100.00
21902;BME280;11115;46.038;14.612;2023-07-13T00:41:19;98125.03;;;21.17;100.00
21902;BME280;11115;46.038;14.612;2023-07-13T00:43:57;98128.97;;;21.09;100.00
21902;BME280;11115;46.038;14.612;2023-07-13T00:46:55;98127.78;;;21.10;100.00
21902;BME280;11115;46.038;14.612;2023-07-13T00:49:30;98141.19;;;21.24;100.00
21902;BME280;11115;46.038;14.612;2023-07-13T00:52:06;98137.63;;;21.27;100.00
21902;BME280;11115;46.038;14.612;2023-07-13T00:54:45;98128.69;;;21.21;100.00
21902;BME280;11115;46.038;14.612;2023-07-13T00:57:25;98131.34;;;21.03;100.00
21902;BME280;11115;46.038;14.612;2023-07-13T01:00:03;98134.47;;;20.95;100.00
21902;BME280;11115;46.038;14.612;2023-07-13T01:02:44;98133.06;;;20.78;100.00
21902;BME280;11115;46.038;14.612;2023-07-13T01:05:20;98156.38;;;20.78;100.00
21902;BME280;11115;46.038;14.612;2023-07-13T01:07:57;98160.22;;;21.00;100.00
21902;BME280;11115;46.038;14.612;2023-07-13T01:10:56;98187.13;;;21.01;100.00
21902;BME280;11115;46.038;14.612;2023-07-13T01:13:32;98197.22;;;21.02;100.00
21902;BME280;11115;46.038;14.612;2023-07-13T01:16:05;98259.09;;;21.02;100.00
21902;BME280;11115;46.038;14.612;2023-07-13T01:18:43;98358.66;;;21.01;100.00
21902;BME280;11115;46.038;14.612;2023-07-13T01:21:17;98400.66;;;21.17;100.00
21902;BME280;11115;46.038;14.612;2023-07-13T01:23:49;98390.09;;;21.07;100.00
21902;BME280;11115;46.038;14.612;2023-07-13T01:26:22;98352.31;;;21.04;100.00
21902;BME280;11115;46.038;14.612;2023-07-13T01:28:54;98322.47;;;20.96;100.00
21902;BME280;11115;46.038;14.612;2023-07-13T01:31:29;98310.53;;;20.76;100.00
21902;BME280;11115;46.038;14.612;2023-07-13T01:33:59;98397.91;;;20.64;100.00
21902;BME280;11115;46.038;14.612;2023-07-13T01:36:30;98482.78;;;20.73;100.00
21902;BME280;11115;46.038;14.612;2023-07-13T01:39:14;98509.75;;;20.78;100.00
21902;BME280;11115;46.038;14.612;2023-07-13T01:41:48;98435.84;;;20.51;100.00
21902;BME280;11115;46.038;14.612;2023-07-13T01:44:29;98441.69;;;19.77;100.00
21902;BME280;11115;46.038;14.612;2023-07-13T01:46:58;98433.50;;;19.68;100.00
21902;BME280;11115;46.038;14.612;2023-07-13T01:49:29;98403.88;;;19.52;100.00
21902;BME280;11115;46.038;14.612;2023-07-13T01:52:06;98393.81;;;19.51;100.00
21902;BME280;11115;46.038;14.612;2023-07-13T01:54:40;98414.22;;;19.48;100.00
21902;BME280;11115;46.038;14.612;2023-07-13T01:57:18;98377.00;;;19.51;100.00
21902;BME280;11115;46.038;14.612;2023-07-13T01:59:48;98354.63;;;19.16;100.00
21902;BME280;11115;46.038;14.612;2023-07-13T02:02:19;98330.72;;;19.02;100.00
21902;BME280;11115;46.038;14.612;2023-07-13T02:05:14;98318.50;;;18.91;100.00
21902;BME280;11115;46.038;14.612;2023-07-13T02:07:54;98334.84;;;18.89;100.00
21902;BME280;11115;46.038;14.612;2023-07-13T02:10:31;98346.97;;;19.13;100.00
21902;BME280;11115;46.038;14.612;2023-07-13T02:13:06;98353.97;;;19.03;100.00
21902;BME280;11115;46.038;14.612;2023-07-13T02:15:43;98343.25;;;19.08;100.00
21902;BME280;11115;46.038;14.612;2023-07-13T02:18:12;98352.28;;;18.98;100.00
21902;BME280;11115;46.038;14.612;2023-07-13T02:20:46;98387.69;;;19.06;100.00
21902;BME280;11115;46.038;14.612;2023-07-13T02:23:18;98407.31;;;19.06;100.00
21902;BME280;11115;46.038;14.612;2023-07-13T02:25:59;98427.66;;;19.03;100.00
21902;BME280;11115;46.038;14.612;2023-07-13T02:28:31;98422.06;;;19.23;100.00
21902;BME280;11115;46.038;14.612;2023-07-13T02:31:06;98411.16;;;19.18;100.00
21902;BME280;11115;46.038;14.612;2023-07-13T02:33:41;98413.66;;;19.03;100.00
21902;BME280;11115;46.038;14.612;2023-07-13T02:36:15;98485.94;;;18.94;100.00
21902;BME280;11115;46.038;14.612;2023-07-13T02:39:04;98542.00;;;18.94;100.00
21902;BME280;11115;46.038;14.612;2023-07-13T02:41:38;98506.38;;;18.95;100.00
21902;BME280;11115;46.038;14.612;2023-07-13T02:44:20;98522.47;;;18.82;100.00
21902;BME280;11115;46.038;14.612;2023-07-13T02:46:53;98470.66;;;18.60;100.00
21902;BME280;11115;46.038;14.612;2023-07-13T02:49:30;98378.94;;;18.57;100.00
21902;BME280;11115;46.038;14.612;2023-07-13T02:52:05;98349.66;;;18.70;100.00
21902;BME280;11115;46.038;14.612;2023-07-13T02:54:48;98340.72;;;18.65;100.00
21902;BME280;11115;46.038;14.612;2023-07-13T02:57:31;98334.28;;;18.64;100.00
21902;BME280;11115;46.038;14.612;2023-07-13T03:00:03;98321.09;;;18.49;100.00
21902;BME280;11115;46.038;14.612;2023-07-13T03:02:37;98308.59;;;18.62;100.00
21902;BME280;11115;46.038;14.612;2023-07-13T03:05:15;98317.47;;;18.64;100.00
21902;BME280;11115;46.038;14.612;2023-07-13T03:07:56;98337.97;;;18.68;100.00
21902;BME280;11115;46.038;14.612;2023-07-13T03:10:27;98335.41;;;18.44;100.00
21902;BME280;11115;46.038;14.612;2023-07-13T03:13:01;98288.81;;;18.36;100.00
21902;BME280;11115;46.038;14.612;2023-07-13T03:15:49;98289.13;;;18.50;100.00
21902;BME280;11115;46.038;14.612;2023-07-13T03:18:27;98326.59;;;18.61;100.00
21902;BME280;11115;46.038;14.612;2023-07-13T03:21:02;98339.81;;;18.45;100.00
21902;BME280;11115;46.038;14.612;2023-07-13T03:23:36;98303.34;;;18.41;100.00
21902;BME280;11115;46.038;14.612;2023-07-13T03:26:13;98259.56;;;18.33;100.00
21902;BME280;11115;46.038;14.612;2023-07-13T03:28:45;98286.53;;;18.41;100.00
21902;BME280;11115;46.038;14.612;2023-07-13T03:31:25;98272.16;;;18.43;100.00
21902;BME280;11115;46.038;14.612;2023-07-13T03:33:57;98276.91;;;18.58;100.00
21902;BME280;11115;46.038;14.612;2023-07-13T03:36:34;98284.31;;;18.66;100.00
21902;BME280;11115;46.038;14.612;2023-07-13T03:39:06;98281.00;;;18.45;100.00
21902;BME280;11115;46.038;14.612;2023-07-13T03:41:46;98275.84;;;18.47;100.00
21902;BME280;11115;46.038;14.612;2023-07-13T03:44:18;98261.28;;;18.57;100.00
21902;BME280;11115;46.038;14.612;2023-07-13T03:46:52;98276.44;;;18.72;100.00
21902;BME280;11115;46.038;14.612;2023-07-13T03:49:23;98270.66;;;18.65;100.00
21902;BME280;11115;46.038;14.612;2023-07-13T03:52:01;98288.03;;;18.70;100.00
21902;BME280;11115;46.038;14.612;2023-07-13T03:54:33;98286.13;;;18.59;100.00
21902;BME280;11115;46.038;14.612;2023-07-13T03:57:08;98275.22;;;18.54;100.00
21902;BME280;11115;46.038;14.612;2023-07-13T03:59:46;98288.41;;;18.53;100.00
21902;BME280;11115;46.038;14.612;2023-07-13T04:02:17;98306.03;;;18.54;100.00
21902;BME280;11115;46.038;14.612;2023-07-13T04:04:50;98308.28;;;18.48;100.00
21902;BME280;11115;46.038;14.612;2023-07-13T04:07:24;98313.88;;;18.48;100.00
21902;BME280;11115;46.038;14.612;2023-07-13T04:10:06;98314.06;;;18.55;100.00
21902;BME280;11115;46.038;14.612;2023-07-13T04:12:36;98325.09;;;18.64;100.00
21902;BME280;11115;46.038;14.612;2023-07-13T04:15:13;98322.09;;;18.57;100.00
21902;BME280;11115;46.038;14.612;2023-07-13T04:17:42;98329.41;;;18.61;100.00
21902;BME280;11115;46.038;14.612;2023-07-13T04:20:18;98323.34;;;18.59;100.00
21902;BME280;11115;46.038;14.612;2023-07-13T04:23:00;98328.34;;;18.50;100.00
21902;BME280;11115;46.038;14.612;2023-07-13T04:25:38;98309.75;;;18.42;100.00
21902;BME280;11115;46.038;14.612;2023-07-13T04:28:07;98317.13;;;18.50;100.00
21902;BME280;11115;46.038;14.612;2023-07-13T04:30:38;98321.22;;;18.53;100.00
21902;BME280;11115;46.038;14.612;2023-07-13T04:33:14;98325.28;;;18.55;100.00
21902;BME280;11115;46.038;14.612;2023-07-13T04:35:55;98332.56;;;18.75;100.00
21902;BME280;11115;46.038;14.612;2023-07-13T04:38:26;98332.38;;;18.68;100.00
21902;BME280;11115;46.038;14.612;2023-07-13T04:41:07;98316.13;;;18.93;100.00
21902;BME280;11115;46.038;14.612;2023-07-13T04:43:43;98314.78;;;18.87;100.00
21902;BME280;11115;46.038;14.612;2023-07-13T04:46:17;98330.88;;;19.09;100.00
21902;BME280;11115;46.038;14.612;2023-07-13T04:48:52;98328.66;;;18.99;100.00
21902;BME280;11115;46.038;14.612;2023-07-13T04:51:25;98330.28;;;19.00;100.00
21902;BME280;11115;46.038;14.612;2023-07-13T04:54:00;98327.19;;;19.05;100.00
21902;BME280;11115;46.038;14.612;2023-07-13T04:56:34;98341.13;;;19.21;100.00
21902;BME280;11115;46.038;14.612;2023-07-13T04:59:07;98348.78;;;19.24;100.00
21902;BME280;11115;46.038;14.612;2023-07-13T05:01:39;98353.22;;;19.25;100.00
21902;BME280;11115;46.038;14.612;2023-07-13T05:04:13;98356.13;;;19.29;100.00
21902;BME280;11115;46.038;14.612;2023-07-13T05:06:54;98362.88;;;19.28;100.00
21902;BME280;11115;46.038;14.612;2023-07-13T05:09:25;98370.72;;;19.19;100.00
21902;BME280;11115;46.038;14.612;2023-07-13T05:11:56;98373.22;;;19.24;100.00
21902;BME280;11115;46.038;14.612;2023-07-13T05:14:26;98376.09;;;19.27;100.00
21902;BME280;11115;46.038;14.612;2023-07-13T05:16:59;98380.00;;;19.23;100.00
21902;BME280;11115;46.038;14.612;2023-07-13T05:19:37;98369.34;;;19.28;100.00
21902;BME280;11115;46.038;14.612;2023-07-13T05:22:16;98381.78;;;19.12;100.00
21902;BME280;11115;46.038;14.612;2023-07-13T05:24:55;98377.44;;;19.14;100.00
21902;BME280;11115;46.038;14.612;2023-07-13T05:27:39;98346.22;;;19.16;100.00
21902;BME280;11115;46.038;14.612;2023-07-13T05:30:15;98369.41;;;19.13;100.00
21902;BME280;11115;46.038;14.612;2023-07-13T05:32:46;98337.50;;;18.82;100.00
21902;BME280;11115;46.038;14.612;2023-07-13T05:35:19;98342.91;;;18.91;100.00
21902;BME280;11115;46.038;14.612;2023-07-13T05:37:58;98375.75;;;19.09;100.00
21902;BME280;11115;46.038;14.612;2023-07-13T05:40:30;98385.03;;;19.14;100.00
21902;BME280;11115;46.038;14.612;2023-07-13T05:43:05;98370.41;;;19.24;100.00
21902;BME280;11115;46.038;14.612;2023-07-13T05:45:37;98370.22;;;19.32;100.00
21902;BME280;11115;46.038;14.612;2023-07-13T05:48:10;98375.66;;;19.25;100.00
21902;BME280;11115;46.038;14.612;2023-07-13T05:50:40;98367.34;;;19.29;100.00
21902;BME280;11115;46.038;14.612;2023-07-13T05:53:12;98361.56;;;19.41;100.00
21902;BME280;11115;46.038;14.612;2023-07-13T05:55:43;98358.97;;;19.52;100.00
21902;BME280;11115;46.038;14.612;2023-07-13T05:58:16;98369.97;;;19.60;100.00
21902;BME280;11115;46.038;14.612;2023-07-13T06:01:08;98370.78;;;19.61;100.00
21902;BME280;11115;46.038;14.612;2023-07-13T06:03:49;98365.41;;;19.72;100.00
21902;BME280;11115;46.038;14.612;2023-07-13T06:06:21;98381.88;;;19.73;100.00
21902;BME280;11115;46.038;14.612;2023-07-13T06:08:52;98376.69;;;19.75;100.00
21902;BME280;11115;46.038;14.612;2023-07-13T06:11:27;98375.94;;;19.78;100.00
21902;BME280;11115;46.038;14.612;2023-07-13T06:14:01;98370.09;;;19.87;100.00
21902;BME280;11115;46.038;14.612;2023-07-13T06:16:34;98368.09;;;19.87;100.00
21902;BME280;11115;46.038;14.612;2023-07-13T06:19:03;98362.59;;;19.94;100.00
21902;BME280;11115;46.038;14.612;2023-07-13T06:21:39;98357.53;;;20.04;100.00
21902;BME280;11115;46.038;14.612;2023-07-13T06:24:10;98363.72;;;20.13;100.00
21902;BME280;11115;46.038;14.612;2023-07-13T06:26:39;98356.88;;;20.10;100.00
21902;BME280;11115;46.038;14.612;2023-07-13T06:29:19;98365.47;;;20.21;100.00
21902;BME280;11115;46.038;14.612;2023-07-13T06:31:48;98370.22;;;20.17;100.00
21902;BME280;11115;46.038;14.612;2023-07-13T06:34:23;98376.59;;;20.14;100.00
21902;BME280;11115;46.038;14.612;2023-07-13T06:36:55;98368.50;;;20.35;100.00
21902;BME280;11115;46.038;14.612;2023-07-13T06:39:26;98379.75;;;20.35;100.00
21902;BME280;11115;46.038;14.612;2023-07-13T06:41:57;98369.91;;;20.45;100.00
21902;BME280;11115;46.038;14.612;2023-07-13T06:44:28;98363.06;;;20.69;100.00
21902;BME280;11115;46.038;14.612;2023-07-13T06:47:03;98373.31;;;20.57;100.00
21902;BME280;11115;46.038;14.612;2023-07-13T06:49:39;98361.84;;;20.43;100.00
21902;BME280;11115;46.038;14.612;2023-07-13T06:52:11;98351.59;;;20.54;100.00
21902;BME280;11115;46.038;14.612;2023-07-13T06:54:40;98359.72;;;20.89;100.00
21902;BME280;11115;46.038;14.612;2023-07-13T06:57:19;98357.34;;;20.91;100.00
21902;BME280;11115;46.038;14.612;2023-07-13T06:59:49;98353.78;;;20.95;100.00
21902;BME280;11115;46.038;14.612;2023-07-13T07:02:25;98346.38;;;21.13;100.00
21902;BME280;11115;46.038;14.612;2023-07-13T07:04:59;98338.09;;;21.24;100.00
21902;BME280;11115;46.038;14.612;2023-07-13T07:07:44;98356.66;;;21.28;100.00
21902;BME280;11115;46.038;14.612;2023-07-13T07:10:15;98357.72;;;21.20;100.00
21902;BME280;11115;46.038;14.612;2023-07-13T07:12:49;98339.88;;;21.39;100.00
21902;BME280;11115;46.038;14.612;2023-07-13T07:15:21;98338.16;;;21.27;100.00
21902;BME280;11115;46.038;14.612;2023-07-13T07:17:57;98338.63;;;21.33;100.00
21902;BME280;11115;46.038;14.612;2023-07-13T07:20:30;98335.81;;;21.33;100.00
21902;BME280;11115;46.038;14.612;2023-07-13T07:23:04;98329.03;;;21.37;100.00
21902;BME280;11115;46.038;14.612;2023-07-13T07:25:47;98341.25;;;21.52;100.00
21902;BME280;11115;46.038;14.612;2023-07-13T07:28:25;98349.94;;;21.40;100.00
21902;BME280;11115;46.038;14.612;2023-07-13T07:31:15;98340.78;;;21.46;100.00
21902;BME280;11115;46.038;14.612;2023-07-13T07:33:51;98332.81;;;21.52;100.00
21902;BME280;11115;46.038;14.612;2023-07-13T07:36:23;98342.84;;;21.90;100.00
21902;BME280;11115;46.038;14.612;2023-07-13T07:38:59;98346.91;;;21.93;100.00
21902;BME280;11115;46.038;14.612;2023-07-13T07:41:29;98337.66;;;21.96;100.00
21902;BME280;11115;46.038;14.612;2023-07-13T07:44:21;98350.22;;;22.02;100.00
21902;BME280;11115;46.038;14.612;2023-07-13T07:47:01;98351.63;;;22.22;100.00
21902;BME280;11115;46.038;14.612;2023-07-13T07:49:33;98339.72;;;22.39;100.00
21902;BME280;11115;46.038;14.612;2023-07-13T07:52:09;98332.50;;;22.49;100.00
21902;BME280;11115;46.038;14.612;2023-07-13T07:54:42;98316.00;;;22.48;100.00
21902;BME280;11115;46.038;14.612;2023-07-13T07:57:31;98330.22;;;22.65;100.00
21902;BME280;11115;46.038;14.612;2023-07-13T08:00:07;98336.81;;;22.32;100.00
21902;BME280;11115;46.038;14.612;2023-07-13T08:03:06;98330.75;;;22.30;100.00
21902;BME280;11115;46.038;14.612;2023-07-13T08:05:56;98331.28;;;22.47;100.00
21902;BME280;11115;46.038;14.612;2023-07-13T08:08:51;98336.25;;;22.67;100.00
21902;BME280;11115;46.038;14.612;2023-07-13T08:11:20;98337.03;;;22.61;100.00
21902;BME280;11115;46.038;14.612;2023-07-13T08:14:15;98343.88;;;22.60;100.00
21902;BME280;11115;46.038;14.612;2023-07-13T08:16:45;98346.69;;;22.56;100.00
21902;BME280;11115;46.038;14.612;2023-07-13T08:19:17;98342.69;;;22.61;100.00
21902;BME280;11115;46.038;14.612;2023-07-13T08:21:48;98351.84;;;22.51;100.00
21902;BME280;11115;46.038;14.612;2023-07-13T08:24:18;98344.53;;;22.39;100.00
21902;BME280;11115;46.038;14.612;2023-07-13T08:26:50;98351.03;;;22.47;100.00
21902;BME280;11115;46.038;14.612;2023-07-13T08:29:33;98338.63;;;22.58;100.00
21902;BME280;11115;46.038;14.612;2023-07-13T08:32:11;98324.94;;;22.60;100.00
21902;BME280;11115;46.038;14.612;2023-07-13T08:34:40;98321.75;;;22.65;100.00
21902;BME280;11115;46.038;14.612;2023-07-13T08:37:10;98325.38;;;22.66;100.00
21902;BME280;11115;46.038;14.612;2023-07-13T08:39:43;98320.97;;;22.72;100.00
21902;BME280;11115;46.038;14.612;2023-07-13T08:42:36;98321.56;;;22.95;100.00
21902;BME280;11115;46.038;14.612;2023-07-13T08:48:11;98318.75;;;22.95;100.00
21902;BME280;11115;46.038;14.612;2023-07-13T08:51:23;98307.47;;;22.95;100.00
21902;BME280;11115;46.038;14.612;2023-07-13T08:54:02;98309.13;;;23.07;100.00
21902;BME280;11115;46.038;14.612;2023-07-13T08:56:54;98311.94;;;23.11;100.00
21902;BME280;11115;46.038;14.612;2023-07-13T08:59:31;98316.38;;;23.12;100.00
21902;BME280;11115;46.038;14.612;2023-07-13T09:05:13;98322.41;;;23.03;100.00
21902;BME280;11115;46.038;14.612;2023-07-13T09:11:00;98324.41;;;23.02;100.00
21902;BME280;11115;46.038;14.612;2023-07-13T09:16:35;98324.38;;;22.95;100.00
21902;BME280;11115;46.038;14.612;2023-07-13T09:19:13;98323.22;;;23.11;100.00
21902;BME280;11115;46.038;14.612;2023-07-13T09:21:47;98335.81;;;23.27;100.00
21902;BME280;11115;46.038;14.612;2023-07-13T09:24:49;98345.88;;;23.25;100.00
21902;BME280;11115;46.038;14.612;2023-07-13T09:27:23;98347.91;;;23.31;100.00
21902;BME280;11115;46.038;14.612;2023-07-13T09:32:51;98335.56;;;23.68;100.00
21902;BME280;11115;46.038;14.612;2023-07-13T09:35:37;98329.53;;;23.80;100.00
21902;BME280;11115;46.038;14.612;2023-07-13T09:38:19;98321.03;;;23.66;100.00
21902;BME280;11115;46.038;14.612;2023-07-13T09:44:12;98315.81;;;23.75;100.00
21902;BME280;11115;46.038;14.612;2023-07-13T09:46:52;98306.97;;;23.91;100.00
21902;BME280;11115;46.038;14.612;2023-07-13T09:49:27;98308.19;;;23.97;100.00
21902;BME280;11115;46.038;14.612;2023-07-13T09:52:15;98308.59;;;23.92;100.00
21902;BME280;11115;46.038;14.612;2023-07-13T09:54:54;98320.28;;;24.05;100.00
21902;BME280;11115;46.038;14.612;2023-07-13T09:57:31;98326.34;;;24.17;100.00
21902;BME280;11115;46.038;14.612;2023-07-13T10:00:28;98295.28;;;24.35;100.00
21902;BME280;11115;46.038;14.612;2023-07-13T10:03:05;98311.00;;;24.43;100.00
21902;BME280;11115;46.038;14.612;2023-07-13T10:05:40;98315.84;;;24.57;100.00
21902;BME280;11115;46.038;14.612;2023-07-13T10:08:30;98341.31;;;24.46;100.00
21902;BME280;11115;46.038;14.612;2023-07-13T10:11:29;98332.00;;;24.17;100.00
21902;BME280;11115;46.038;14.612;2023-07-13T10:14:20;98323.09;;;24.05;100.00
21902;BME280;11115;46.038;14.612;2023-07-13T10:17:00;98326.34;;;24.14;100.00
21902;BME280;11115;46.038;14.612;2023-07-13T10:19:32;98298.50;;;24.19;100.00
21902;BME280;11115;46.038;14.612;2023-07-13T10:25:17;98327.13;;;24.07;100.00
21902;BME280;11115;46.038;14.612;2023-07-13T10:27:51;98324.34;;;24.14;100.00
21902;BME280;11115;46.038;14.612;2023-07-13T10:30:23;98332.44;;;24.30;100.00
21902;BME280;11115;46.038;14.612;2023-07-13T10:33:03;98326.78;;;24.34;100.00
21902;BME280;11115;46.038;14.612;2023-07-13T10:35:43;98315.03;;;24.60;100.00
21902;BME280;11115;46.038;14.612;2023-07-13T10:38:21;98306.13;;;24.76;100.00
21902;BME280;11115;46.038;14.612;2023-07-13T10:41:10;98285.50;;;24.75;100.00
21902;BME280;11115;46.038;14.612;2023-07-13T10:43:46;98271.84;;;24.42;100.00
21902;BME280;11115;46.038;14.612;2023-07-13T10:46:26;98262.16;;;24.36;100.00
21902;BME280;11115;46.038;14.612;2023-07-13T10:49:17;98269.81;;;24.28;100.00
21902;BME280;11115;46.038;14.612;2023-07-13T10:51:48;98270.25;;;24.12;100.00
21902;BME280;11115;46.038;14.612;2023-07-13T10:54:31;98281.13;;;24.00;100.00
21902;BME280;11115;46.038;14.612;2023-07-13T10:57:18;98277.47;;;23.85;100.00
21902;BME280;11115;46.038;14.612;2023-07-13T11:00:14;98283.91;;;23.60;100.00
21902;BME280;11115;46.038;14.612;2023-07-13T11:03:10;98308.44;;;23.42;100.00
21902;BME280;11115;46.038;14.612;2023-07-13T11:05:51;98313.63;;;23.33;100.00
21902;BME280;11115;46.038;14.612;2023-07-13T11:11:35;98299.50;;;23.15;100.00
21902;BME280;11115;46.038;14.612;2023-07-13T11:14:36;98311.59;;;23.23;100.00
21902;BME280;11115;46.038;14.612;2023-07-13T11:23:51;98305.31;;;22.78;100.00
21902;BME280;11115;46.038;14.612;2023-07-13T11:26:02;98253.81;;;22.88;100.00
21902;BME280;11115;46.038;14.612;2023-07-13T11:28:42;98211.91;;;22.87;100.00
21902;BME280;11115;46.038;14.612;2023-07-13T11:31:18;98231.00;;;22.38;100.00
21902;BME280;11115;46.038;14.612;2023-07-13T11:33:57;98230.53;;;22.29;100.00
21902;BME280;11115;46.038;14.612;2023-07-13T11:36:31;98230.16;;;22.34;100.00
21902;BME280;11115;46.038;14.612;2023-07-13T11:41:55;98221.56;;;22.17;100.00
21902;BME280;11115;46.038;14.612;2023-07-13T11:44:34;98216.03;;;22.27;100.00
21902;BME280;11115;46.038;14.612;2023-07-13T11:47:42;98252.94;;;22.11;100.00
21902;BME280;11115;46.038;14.612;2023-07-13T11:50:23;98287.72;;;21.86;100.00
21902;BME280;11115;46.038;14.612;2023-07-13T11:52:55;98297.00;;;21.90;100.00
21902;BME280;11115;46.038;14.612;2023-07-13T11:55:29;98286.59;;;21.97;100.00
21902;BME280;11115;46.038;14.612;2023-07-13T11:58:03;98264.06;;;21.97;100.00
21902;BME280;11115;46.038;14.612;2023-07-13T12:00:42;98322.66;;;21.81;100.00
21902;BME280;11115;46.038;14.612;2023-07-13T12:03:20;98366.81;;;21.73;100.00
21902;BME280;11115;46.038;14.612;2023-07-13T12:06:23;98307.09;;;21.94;100.00
21902;BME280;11115;46.038;14.612;2023-07-13T12:09:02;98221.31;;;21.81;100.00
21902;BME280;11115;46.038;14.612;2023-07-13T12:11:35;98263.78;;;21.65;100.00
21902;BME280;11115;46.038;14.612;2023-07-13T12:14:16;98279.16;;;21.75;100.00
21902;BME280;11115;46.038;14.612;2023-07-13T12:16:56;98358.97;;;21.56;100.00
21902;BME280;11115;46.038;14.612;2023-07-13T12:19:57;98373.94;;;21.60;100.00
21902;BME280;11115;46.038;14.612;2023-07-13T12:22:37;98381.03;;;21.50;100.00
21902;BME280;11115;46.038;14.612;2023-07-13T12:25:27;98336.47;;;21.56;100.00
21902;BME280;11115;46.038;14.612;2023-07-13T12:27:57;98306.50;;;21.74;100.00
21902;BME280;11115;46.038;14.612;2023-07-13T12:30:39;98242.97;;;21.77;100.00
21902;BME280;11115;46.038;14.612;2023-07-13T12:33:16;98302.47;;;21.75;100.00
21902;BME280;11115;46.038;14.612;2023-07-13T12:35:51;98341.72;;;21.58;100.00
21902;BME280;11115;46.038;14.612;2023-07-13T12:38:30;98330.06;;;21.59;100.00
21902;BME280;11115;46.038;14.612;2023-07-13T12:41:08;98378.47;;;21.38;100.00
21902;BME280;11115;46.038;14.612;2023-07-13T12:43:45;98374.72;;;21.27;100.00
21902;BME280;11115;46.038;14.612;2023-07-13T12:46:24;98326.09;;;21.27;100.00
21902;BME280;11115;46.038;14.612;2023-07-13T12:48:58;98330.81;;;21.52;100.00
21902;BME280;11115;46.038;14.612;2023-07-13T12:51:50;98351.13;;;21.39;100.00
21902;BME280;11115;46.038;14.612;2023-07-13T12:54:23;98330.41;;;21.54;100.00
21902;BME280;11115;46.038;14.612;2023-07-13T12:56:55;98326.72;;;21.84;100.00
21902;BME280;11115;46.038;14.612;2023-07-13T12:59:25;98317.50;;;21.90;100.00
21902;BME280;11115;46.038;14.612;2023-07-13T13:01:58;98331.72;;;22.01;100.00
21902;BME280;11115;46.038;14.612;2023-07-13T13:04:43;98299.38;;;21.84;100.00
21902;BME280;11115;46.038;14.612;2023-07-13T13:07:14;98281.00;;;22.01;100.00
21902;BME280;11115;46.038;14.612;2023-07-13T13:09:49;98287.84;;;22.00;100.00
21902;BME280;11115;46.038;14.612;2023-07-13T13:12:34;98294.91;;;21.79;100.00
21902;BME280;11115;46.038;14.612;2023-07-13T13:15:09;98308.50;;;21.74;100.00
21902;BME280;11115;46.038;14.612;2023-07-13T13:17:43;98300.03;;;21.70;100.00
21902;BME280;11115;46.038;14.612;2023-07-13T13:20:19;98306.09;;;21.76;100.00
21902;BME280;11115;46.038;14.612;2023-07-13T13:22:57;98300.88;;;21.74;100.00
21902;BME280;11115;46.038;14.612;2023-07-13T13:25:26;98270.31;;;21.76;100.00
21902;BME280;11115;46.038;14.612;2023-07-13T13:27:55;98272.31;;;21.76;100.00
21902;BME280;11115;46.038;14.612;2023-07-13T13:30:36;98279.25;;;21.86;100.00
21902;BME280;11115;46.038;14.612;2023-07-13T13:33:09;98293.25;;;21.78;100.00
21902;BME280;11115;46.038;14.612;2023-07-13T13:35:49;98288.81;;;21.77;100.00
21902;BME280;11115;46.038;14.612;2023-07-13T13:38:26;98299.94;;;21.60;100.00
21902;BME280;11115;46.038;14.612;2023-07-13T13:40:59;98285.56;;;21.72;100.00
21902;BME280;11115;46.038;14.612;2023-07-13T13:43:39;98287.44;;;22.01;100.00
21902;BME280;11115;46.038;14.612;2023-07-13T13:46:18;98284.47;;;22.28;100.00
21902;BME280;11115;46.038;14.612;2023-07-13T13:48:55;98262.03;;;22.46;100.00
21902;BME280;11115;46.038;14.612;2023-07-13T13:51:40;98275.97;;;22.83;100.00
21902;BME280;11115;46.038;14.612;2023-07-13T13:54:18;98278.28;;;22.73;100.00
21902;BME280;11115;46.038;14.612;2023-07-13T13:57:01;98293.47;;;22.51;100.00
21902;BME280;11115;46.038;14.612;2023-07-13T13:59:35;98283.75;;;22.38;100.00
21902;BME280;11115;46.038;14.612;2023-07-13T14:02:26;98290.47;;;22.23;100.00
21902;BME280;11115;46.038;14.612;2023-07-13T14:05:00;98278.13;;;21.97;100.00
21902;BME280;11115;46.038;14.612;2023-07-13T14:07:30;98291.56;;;22.11;100.00